Time;durP1;ratioP1;P1;durP2;ratioP2;P2;SDS_P1;SDS_P2;PMS_P1;PMS_P2;Temp;Humidity;BMP_temperature;BMP_pressure;BME280_temperature;BME280_humidity;BME280_pressure;Samples;Min_cycle;Max_cycle;Signal;HPM_P1;HPM_P2
2021/11/30 00:04:35;;;;;;;14.60;7.05;;;;;;;2.58;89.88;100418.44;20657154;28;20125;-70
2021/11/30 00:14:38;;;;;;;14.43;7.10;;;;;;;2.63;89.20;100426.25;20657665;28;20062;-69
2021/11/30 00:24:39;;;;;;;12.27;6.22;;;;;;;2.69;87.30;100436.72;20656974;28;20105;-69
2021/11/30 00:34:46;;;;;;;14.43;6.28;;;;;;;2.74;86.76;100448.00;20655912;28;20058;-69
2021/11/30 00:44:49;;;;;;;14.18;6.90;;;;;;;2.74;86.72;100452.31;20654589;28;20101;-69
2021/11/30 00:54:51;;;;;;;12.20;6.53;;;;;;;2.75;86.47;100456.63;20654912;28;20113;-69
2021/11/30 01:04:52;;;;;;;13.35;6.40;;;;;;;2.80;85.68;100445.50;20654520;28;20089;-69
2021/11/30 01:14:54;;;;;;;13.57;5.50;;;;;;;2.86;84.34;100467.16;20653943;28;20586;-69
2021/11/30 01:24:55;;;;;;;18.05;8.02;;;;;;;2.85;84.50;100460.25;20653119;28;20050;-69
2021/11/30 01:34:57;;;;;;;16.70;7.47;;;;;;;2.73;85.93;100482.47;20662448;28;20066;-69
2021/11/30 01:45:10;;;;;;;19.38;10.35;;;;;;;2.69;86.98;100480.66;20670215;28;20136;-68
2021/11/30 01:55:11;;;;;;;13.02;7.35;;;;;;;2.65;87.07;100470.25;20669491;28;20130;-68
2021/11/30 02:05:13;;;;;;;18.65;9.52;;;;;;;2.68;86.19;100465.97;20667942;28;20050;-69
2021/11/30 02:15:15;;;;;;;20.98;10.25;;;;;;;2.71;86.03;100454.84;20666593;28;20054;-70
2021/11/30 02:25:17;;;;;;;19.95;9.23;;;;;;;2.73;86.18;100459.19;20666453;28;20058;-70
2021/11/30 02:35:18;;;;;;;22.80;10.35;;;;;;;2.72;85.08;100466.91;20664148;28;20062;-69
2021/11/30 02:45:20;;;;;;;19.15;8.55;;;;;;;2.73;84.08;100466.97;20664265;28;20062;-69
2021/11/30 02:55:22;;;;;;;18.02;8.07;;;;;;;2.82;83.32;100479.16;20664936;28;20117;-68
2021/11/30 03:05:24;;;;;;;12.75;6.88;;;;;;;2.74;84.39;100465.25;20662755;28;20042;-68
2021/11/30 03:15:25;;;;;;;18.02;7.20;;;;;;;2.88;83.83;100457.72;20662547;28;20392;-67
2021/11/30 03:25:27;;;;;;;14.93;6.63;;;;;;;2.72;84.35;100452.25;20660597;28;20054;-68
2021/11/30 03:35:28;;;;;;;14.80;6.63;;;;;;;2.67;84.61;100433.22;20659068;28;20046;-68
2021/11/30 03:45:30;;;;;;;14.52;6.85;;;;;;;2.73;83.97;100432.44;20660428;28;20050;-67
2021/11/30 03:55:32;;;;;;;17.48;6.05;;;;;;;2.69;84.21;100407.41;20658358;28;20062;-67
2021/11/30 04:05:34;;;;;;;12.02;6.40;;;;;;;2.69;84.27;100390.19;20658736;28;20427;-67
2021/11/30 04:15:35;;;;;;;14.48;6.30;;;;;;;2.77;83.40;100391.16;20658154;28;20058;-67
2021/11/30 04:25:37;;;;;;;11.40;5.63;;;;;;;2.78;83.30;100380.00;20656227;28;20066;-67
2021/11/30 04:35:38;;;;;;;15.48;5.68;;;;;;;2.75;83.07;100369.59;20655808;28;20054;-67
2021/11/30 04:46:01;;;;;;;12.07;5.65;;;;;;;2.80;83.44;100357.59;20655919;28;20070;-67
2021/11/30 04:56:03;;;;;;;13.85;5.03;;;;;;;2.74;83.83;100347.19;20655516;28;20054;-68
2021/11/30 05:06:06;;;;;;;11.95;5.07;;;;;;;2.69;84.85;100330.72;20654023;28;20127;-69
2021/11/30 05:16:07;;;;;;;8.32;4.88;;;;;;;2.65;84.90;100313.44;20653312;28;20573;-69
2021/11/30 05:26:14;;;;;;;8.75;4.30;;;;;;;2.43;86.25;100299.31;20653518;28;20050;-70
2021/11/30 05:36:20;;;;;;;8.98;4.88;;;;;;;2.39;87.01;100284.59;20653392;28;20510;-70
2021/11/30 05:46:21;;;;;;;11.25;5.05;;;;;;;2.34;87.58;100285.38;20653964;28;20050;-71
2021/11/30 05:56:23;;;;;;;12.20;5.68;;;;;;;2.18;88.50;100277.38;20652866;28;20058;-72
2021/11/30 06:06:33;;;;;;;8.18;5.05;;;;;;;1.99;90.78;100270.19;20652670;28;20062;-72
2021/11/30 06:16:36;;;;;;;13.70;5.32;;;;;;;2.01;91.50;100264.22;20656712;28;20058;-74
2021/11/30 06:26:38;;;;;;;11.85;5.47;;;;;;;1.87;92.04;100260.53;20667261;28;20054;-74
2021/11/30 06:36:40;;;;;;;10.77;5.75;;;;;;;1.63;92.64;100255.81;20665400;28;20133;-74
2021/11/30 06:46:42;;;;;;;11.43;6.07;;;;;;;1.50;93.26;100249.53;20664528;28;20097;-75
2021/11/30 06:56:44;;;;;;;14.07;6.47;;;;;;;1.39;94.23;100239.84;20664364;28;20582;-74
2021/11/30 07:07:05;;;;;;;13.60;6.55;;;;;;;1.40;94.68;100231.28;20662152;28;20503;-73
2021/11/30 07:17:06;;;;;;;11.45;5.93;;;;;;;1.38;94.71;100212.31;20663230;28;20453;-73
2021/11/30 07:27:08;;;;;;;11.70;6.25;;;;;;;1.47;93.90;100208.19;20658722;28;20155;-73
2021/11/30 07:37:14;;;;;;;13.02;6.68;;;;;;;1.38;94.50;100217.47;20657307;28;20428;-74
2021/11/30 07:47:15;;;;;;;12.65;6.35;;;;;;;1.44;94.65;100222.78;20659663;28;20058;-74
2021/11/30 07:57:17;;;;;;;12.85;6.10;;;;;;;1.34;94.64;100205.38;20659305;28;20101;-77
2021/11/30 08:07:19;;;;;;;13.10;6.82;;;;;;;1.44;94.86;100184.09;20637824;28;20065;-75
2021/11/30 08:17:20;;;;;;;19.05;6.95;;;;;;;1.46;94.29;100175.50;20588184;28;20153;-76
2021/11/30 08:27:22;;;;;;;12.65;6.28;;;;;;;1.57;94.36;100167.94;20611205;28;20050;-73
2021/11/30 08:37:24;;;;;;;14.05;7.20;;;;;;;1.61;94.70;100177.47;20612619;28;20737;-78
2021/11/30 08:47:26;;;;;;;12.23;5.85;;;;;;;1.56;95.44;100160.19;20631811;28;20113;-75
2021/11/30 08:57:27;;;;;;;11.10;6.18;;;;;;;1.68;95.43;100160.41;20641658;28;20058;-74
2021/11/30 09:07:29;;;;;;;15.18;6.10;;;;;;;1.69;95.62;100142.34;20633909;28;20062;-73
2021/11/30 09:17:31;;;;;;;11.88;5.68;;;;;;;1.71;95.67;100140.66;20585158;28;20121;-74
2021/11/30 09:27:33;;;;;;;10.02;5.22;;;;;;;1.70;95.48;100115.69;20638446;28;20054;-73
2021/11/30 09:37:38;;;;;;;9.55;4.82;;;;;;;1.75;95.43;100100.28;20614761;28;20058;-73
2021/11/30 09:47:41;;;;;;;10.88;5.05;;;;;;;1.82;95.60;100096.97;20566790;28;20539;-72
2021/11/30 09:57:43;;;;;;;9.23;4.60;;;;;;;1.82;95.86;100088.31;20585665;28;20105;-74
2021/11/30 10:07:51;;;;;;;9.60;4.60;;;;;;;1.84;95.86;100047.94;20615355;28;20110;-72
2021/11/30 10:18:32;;;;;;;8.32;4.72;;;;;;;1.91;95.96;100054.91;20616697;28;20067;-72
2021/11/30 10:28:34;;;;;;;8.18;4.22;;;;;;;2.01;96.64;100078.31;20616376;28;20067;-73
2021/11/30 10:38:39;;;;;;;8.35;4.03;;;;;;;2.14;95.55;100068.97;20658493;28;20101;-74
2021/11/30 10:48:41;;;;;;;11.90;4.82;;;;;;;2.15;95.97;100064.69;20658573;28;20115;-73
2021/11/30 10:58:44;;;;;;;10.38;4.03;;;;;;;2.18;95.66;100075.06;20657941;28;20057;-73
2021/11/30 11:08:50;;;;;;;8.80;4.60;;;;;;;2.23;95.68;100073.41;20656442;28;20471;-75
2021/11/30 11:18:55;;;;;;;8.10;3.85;;;;;;;2.19;96.16;100077.66;20656648;28;20116;-75
2021/11/30 11:28:59;;;;;;;7.97;4.10;;;;;;;2.23;95.92;100100.09;20655238;28;20058;-74
2021/11/30 11:39:04;;;;;;;9.20;3.90;;;;;;;2.25;95.72;100098.41;20654117;28;20054;-75
2021/11/30 11:49:10;;;;;;;7.43;3.60;;;;;;;2.33;95.42;100106.25;20654585;28;20120;-75
2021/11/30 11:59:20;;;;;;;6.32;3.50;;;;;;;2.34;95.38;100112.28;20653969;28;20492;-75
2021/11/30 12:09:33;;;;;;;7.20;3.17;;;;;;;2.27;95.72;100103.59;20653167;28;20062;-76
2021/11/30 12:19:38;;;;;;;5.07;2.60;;;;;;;2.43;95.45;100077.09;20650925;28;20065;-76
2021/11/30 12:29:40;;;;;;;5.28;2.40;;;;;;;2.39;96.11;100077.91;20616845;28;20070;-74
2021/11/30 12:40:11;;;;;;;4.65;2.42;;;;;;;2.53;95.69;100071.19;20608932;28;20050;-73
2021/11/30 12:50:25;;;;;;;5.47;2.72;;;;;;;2.72;95.40;100090.34;20576592;28;20054;-73
2021/11/30 13:00:29;;;;;;;6.55;3.20;;;;;;;2.87;95.17;100075.84;20566770;28;20047;-77
2021/11/30 13:10:34;;;;;;;4.18;2.05;;;;;;;2.95;94.36;100071.63;20579901;28;20061;-73
2021/11/30 13:20:35;;;;;;;4.63;2.10;;;;;;;2.92;95.11;100063.81;20649694;28;20060;-74
2021/11/30 13:30:37;;;;;;;4.20;2.22;;;;;;;2.90;95.47;100053.47;20658995;28;20133;-75
2021/11/30 13:40:39;;;;;;;5.57;2.55;;;;;;;2.97;96.02;100059.56;20663792;28;20069;-74
2021/11/30 13:50:42;;;;;;;5.47;2.45;;;;;;;3.01;96.22;100075.13;20663604;28;20054;-74
2021/11/30 14:01:01;;;;;;;5.05;2.35;;;;;;;3.07;95.57;100088.13;20662035;28;20108;-73
2021/11/30 14:11:04;;;;;;;6.03;2.38;;;;;;;3.14;95.15;100083.00;20659846;28;20054;-73
2021/11/30 14:21:14;;;;;;;4.75;2.25;;;;;;;3.13;96.30;100076.13;20660990;28;20061;-74
2021/11/30 14:31:15;;;;;;;5.55;2.25;;;;;;;3.24;95.63;100084.81;20660259;28;20054;-74
2021/11/30 14:41:17;;;;;;;6.13;2.72;;;;;;;3.30;95.25;100059.84;20621315;28;20496;-73
2021/11/30 14:51:19;;;;;;;5.07;2.55;;;;;;;3.36;95.27;100079.78;20578319;28;20062;-73
2021/11/30 15:01:28;;;;;;;4.63;1.80;;;;;;;3.39;94.80;100073.75;20576244;28;20109;-73
2021/11/30 15:11:32;;;;;;;4.80;1.75;;;;;;;3.45;95.32;100078.94;20590584;28;20069;-74
2021/11/30 15:21:35;;;;;;;5.15;1.88;;;;;;;3.41;95.56;100069.47;20655356;28;20055;-74
2021/11/30 15:31:38;;;;;;;5.30;2.35;;;;;;;3.44;95.69;100072.91;20647733;28;20062;-74
2021/11/30 15:41:44;;;;;;;4.07;2.20;;;;;;;3.51;96.46;100091.97;20575991;28;20167;-74
2021/11/30 15:51:49;;;;;;;5.30;1.90;;;;;;;3.45;96.66;100095.38;20571398;28;20055;-75
2021/11/30 16:01:50;;;;;;;3.72;2.08;;;;;;;3.51;96.35;100104.91;20571464;28;20054;-75
2021/11/30 16:11:52;;;;;;;4.05;2.20;;;;;;;3.60;96.25;100077.38;20588450;28;20134;-76
2021/11/30 16:21:55;;;;;;;5.07;2.20;;;;;;;3.60;96.07;100084.28;20652355;28;20447;-76
2021/11/30 16:31:56;;;;;;;4.53;2.28;;;;;;;3.70;95.47;100086.06;20654032;28;20050;-76
2021/11/30 16:42:02;;;;;;;5.82;2.50;;;;;;;3.67;96.14;100106.75;20649834;28;20414;-75
2021/11/30 16:52:06;;;;;;;4.30;1.85;;;;;;;3.71;96.08;100129.22;20648996;28;20066;-75
2021/11/30 17:02:08;;;;;;;5.25;2.03;;;;;;;3.59;96.53;100127.41;20647810;28;20499;-76
2021/11/30 17:12:10;;;;;;;5.40;2.85;;;;;;;3.60;96.72;100110.16;20628209;28;20065;-76
2021/11/30 17:22:12;;;;;;;4.78;2.80;;;;;;;3.54;97.16;100115.25;20644010;28;20050;-75
2021/11/30 17:32:14;;;;;;;6.68;3.65;;;;;;;3.62;96.84;100111.03;20644713;28;20050;-76
2021/11/30 17:42:17;;;;;;;6.35;3.65;;;;;;;3.58;97.27;100096.31;20642953;28;20050;-75
2021/11/30 17:52:19;;;;;;;5.22;3.30;;;;;;;3.59;97.29;100106.72;20644959;28;20432;-77
2021/11/30 18:02:25;;;;;;;6.57;3.40;;;;;;;3.59;97.55;100111.00;20644101;28;20066;-76
2021/11/30 18:12:27;;;;;;;6.97;3.97;;;;;;;3.53;97.34;100123.91;20639467;28;20089;-76
2021/11/30 18:22:29;;;;;;;8.13;3.40;;;;;;;3.54;97.16;100121.31;20660119;28;21099;-76
2021/11/30 18:32:31;;;;;;;6.97;4.20;;;;;;;3.54;97.38;100128.22;20656884;28;20050;-75
2021/11/30 18:42:32;;;;;;;8.73;4.32;;;;;;;3.50;96.28;100135.09;20657921;28;20058;-75
2021/11/30 18:52:34;;;;;;;7.28;4.10;;;;;;;3.44;96.44;100160.91;20721690;28;20100;-76
2021/11/30 19:02:36;;;;;;;6.43;3.63;;;;;;;3.43;94.91;100154.00;20670878;28;20055;-75
2021/11/30 19:12:37;;;;;;;6.40;3.22;;;;;;;3.42;95.29;100156.59;20655343;28;20137;-74
2021/11/30 19:22:40;;;;;;;8.90;3.90;;;;;;;3.52;95.02;100166.16;20654486;28;20422;-75
2021/11/30 19:32:41;;;;;;;7.57;4.05;;;;;;;3.40;95.50;100150.50;20653458;28;20093;-76
2021/11/30 19:42:43;;;;;;;8.00;4.35;;;;;;;3.45;95.57;100141.06;20652717;28;20066;-73
2021/11/30 19:52:44;;;;;;;7.03;4.15;;;;;;;3.49;94.28;100148.88;20652723;28;20482;-74
2021/11/30 20:13:06;;;;;;;9.10;4.32;;;;;;;3.43;95.43;100154.00;20650159;28;20054;-74
2021/11/30 20:23:10;;;;;;;7.70;4.10;;;;;;;3.43;95.62;100168.66;20651443;28;20058;-75
2021/11/30 20:33:13;;;;;;;8.63;4.63;;;;;;;3.43;96.49;100168.66;20649192;28;20056;-75
2021/11/30 20:43:17;;;;;;;8.88;4.60;;;;;;;3.50;95.49;100149.78;20649514;28;20137;-75
2021/11/30 20:53:19;;;;;;;10.18;5.45;;;;;;;3.50;96.38;100157.53;20648442;28;20053;-76
2021/11/30 21:03:21;;;;;;;8.25;4.70;;;;;;;3.46;96.23;100148.00;20647459;28;20046;-76
2021/11/30 21:13:22;;;;;;;6.13;3.40;;;;;;;3.46;95.97;100148.00;20649074;28;20105;-76
2021/11/30 21:23:24;;;;;;;6.53;3.60;;;;;;;3.52;96.08;100145.47;20646130;28;20104;-75
2021/11/30 21:33:25;;;;;;;5.72;3.17;;;;;;;3.50;96.55;100144.59;20646032;28;20054;-75
2021/11/30 21:43:27;;;;;;;6.50;3.88;;;;;;;3.56;96.15;100129.97;20645117;28;20047;-76
2021/11/30 21:53:29;;;;;;;7.13;3.05;;;;;;;3.59;95.13;100096.34;20659500;28;20486;-77
2021/11/30 22:03:30;;;;;;;6.05;3.30;;;;;;;3.59;95.90;100098.94;20662535;28;20050;-77
2021/11/30 22:13:32;;;;;;;7.82;3.65;;;;;;;3.56;96.49;100105.81;20661462;28;20057;-77
2021/11/30 22:23:33;;;;;;;7.13;3.90;;;;;;;3.65;95.19;100092.06;20659627;28;20050;-76
2021/11/30 22:33:35;;;;;;;8.27;3.70;;;;;;;3.77;93.52;100092.16;20658635;28;20062;-76
2021/11/30 22:43:36;;;;;;;7.82;3.75;;;;;;;3.80;92.71;100081.81;20659587;28;20105;-76
2021/11/30 22:53:39;;;;;;;12.07;5.53;;;;;;;3.84;92.89;100076.66;20656475;28;20558;-76
2021/11/30 23:03:40;;;;;;;27.02;10.38;;;;;;;3.90;92.36;100064.63;20658564;28;20055;-76
2021/11/30 23:13:42;;;;;;;15.18;6.55;;;;;;;3.91;92.89;100053.38;20663782;28;20438;-76
2021/11/30 23:23:44;;;;;;;17.20;7.22;;;;;;;3.84;94.00;100037.81;20663236;28;20126;-75
2021/11/30 23:33:50;;;;;;;20.95;8.23;;;;;;;3.89;94.68;100005.91;20660839;28;20054;-73
2021/11/30 23:43:52;;;;;;;19.27;8.77;;;;;;;3.73;95.88;100021.34;20661509;28;20101;-74
2021/11/30 23:53:54;;;;;;;12.32;6.28;;;;;;;3.75;95.96;99985.97;20660246;28;20454;-74
